sensor_id;sensor_type;location;lat;lon;timestamp;temperature;humidity
10692;DHT22;5396;50.950;6.988;2024-02-26T00:01:07;7.60;99.90
10692;DHT22;5396;50.950;6.988;2024-02-26T00:03:32;7.70;99.90
10692;DHT22;5396;50.950;6.988;2024-02-26T00:06:01;7.60;99.90
10692;DHT22;5396;50.950;6.988;2024-02-26T00:08:26;7.60;99.90
10692;DHT22;5396;50.950;6.988;2024-02-26T00:10:52;7.50;99.90
10692;DHT22;5396;50.950;6.988;2024-02-26T00:13:17;7.50;99.90
10692;DHT22;5396;50.950;6.988;2024-02-26T00:15:43;7.40;99.90
10692;DHT22;5396;50.950;6.988;2024-02-26T00:18:09;7.40;99.90
10692;DHT22;5396;50.950;6.988;2024-02-26T00:20:34;7.40;99.90
10692;DHT22;5396;50.950;6.988;2024-02-26T00:23:00;7.40;99.90
10692;DHT22;5396;50.950;6.988;2024-02-26T00:25:26;7.30;99.90
10692;DHT22;5396;50.950;6.988;2024-02-26T00:27:51;7.30;99.90
10692;DHT22;5396;50.950;6.988;2024-02-26T00:30:16;7.30;99.90
10692;DHT22;5396;50.950;6.988;2024-02-26T00:32:42;7.30;99.90
10692;DHT22;5396;50.950;6.988;2024-02-26T00:35:07;7.30;99.90
10692;DHT22;5396;50.950;6.988;2024-02-26T00:37:35;7.30;99.90
10692;DHT22;5396;50.950;6.988;2024-02-26T00:40:00;7.30;99.90
10692;DHT22;5396;50.950;6.988;2024-02-26T00:42:26;7.30;99.90
10692;DHT22;5396;50.950;6.988;2024-02-26T00:44:51;7.30;99.90
10692;DHT22;5396;50.950;6.988;2024-02-26T00:47:17;7.30;99.90
10692;DHT22;5396;50.950;6.988;2024-02-26T00:49:42;7.30;99.90
10692;DHT22;5396;50.950;6.988;2024-02-26T00:52:08;7.30;99.90
10692;DHT22;5396;50.950;6.988;2024-02-26T00:54:33;7.30;99.90
10692;DHT22;5396;50.950;6.988;2024-02-26T00:56:59;7.30;99.90
10692;DHT22;5396;50.950;6.988;2024-02-26T00:59:24;7.30;99.90
10692;DHT22;5396;50.950;6.988;2024-02-26T01:01:50;7.20;99.90
10692;DHT22;5396;50.950;6.988;2024-02-26T01:04:15;7.20;99.90
10692;DHT22;5396;50.950;6.988;2024-02-26T01:06:40;7.20;99.90
10692;DHT22;5396;50.950;6.988;2024-02-26T01:09:06;7.20;99.90
10692;DHT22;5396;50.950;6.988;2024-02-26T01:11:31;7.20;99.90
10692;DHT22;5396;50.950;6.988;2024-02-26T01:13:57;7.10;99.90
10692;DHT22;5396;50.950;6.988;2024-02-26T01:16:23;7.10;99.90
10692;DHT22;5396;50.950;6.988;2024-02-26T01:18:48;7.00;99.90
10692;DHT22;5396;50.950;6.988;2024-02-26T01:21:14;7.00;99.90
10692;DHT22;5396;50.950;6.988;2024-02-26T01:23:39;7.00;99.90
10692;DHT22;5396;50.950;6.988;2024-02-26T01:26:05;7.00;99.90
10692;DHT22;5396;50.950;6.988;2024-02-26T01:28:31;7.00;99.90
10692;DHT22;5396;50.950;6.988;2024-02-26T01:30:56;6.90;99.90
10692;DHT22;5396;50.950;6.988;2024-02-26T01:33:24;7.00;99.90
10692;DHT22;5396;50.950;6.988;2024-02-26T01:35:50;6.90;99.90
10692;DHT22;5396;50.950;6.988;2024-02-26T01:38:15;7.00;99.90
10692;DHT22;5396;50.950;6.988;2024-02-26T01:40:41;7.00;99.90
10692;DHT22;5396;50.950;6.988;2024-02-26T01:43:06;7.00;99.90
10692;DHT22;5396;50.950;6.988;2024-02-26T01:45:32;7.00;99.90
10692;DHT22;5396;50.950;6.988;2024-02-26T01:47:57;7.00;99.90
10692;DHT22;5396;50.950;6.988;2024-02-26T01:50:24;6.90;99.90
10692;DHT22;5396;50.950;6.988;2024-02-26T01:52:50;6.90;99.90
10692;DHT22;5396;50.950;6.988;2024-02-26T01:55:19;6.90;99.90
10692;DHT22;5396;50.950;6.988;2024-02-26T01:57:46;6.90;99.90
10692;DHT22;5396;50.950;6.988;2024-02-26T02:00:13;6.90;99.90
10692;DHT22;5396;50.950;6.988;2024-02-26T02:02:39;6.90;99.90
10692;DHT22;5396;50.950;6.988;2024-02-26T02:05:07;6.80;99.90
10692;DHT22;5396;50.950;6.988;2024-02-26T02:07:34;6.80;99.90
10692;DHT22;5396;50.950;6.988;2024-02-26T02:10:00;6.80;99.90
10692;DHT22;5396;50.950;6.988;2024-02-26T02:12:25;6.80;99.90
10692;DHT22;5396;50.950;6.988;2024-02-26T02:14:51;6.80;99.90
10692;DHT22;5396;50.950;6.988;2024-02-26T02:17:16;6.80;99.90
10692;DHT22;5396;50.950;6.988;2024-02-26T02:19:42;6.70;99.90
10692;DHT22;5396;50.950;6.988;2024-02-26T02:22:07;6.70;99.90
10692;DHT22;5396;50.950;6.988;2024-02-26T02:24:33;6.80;99.90
10692;DHT22;5396;50.950;6.988;2024-02-26T02:26:58;6.80;99.90
10692;DHT22;5396;50.950;6.988;2024-02-26T02:29:24;6.80;99.90
10692;DHT22;5396;50.950;6.988;2024-02-26T02:31:49;6.80;99.90
10692;DHT22;5396;50.950;6.988;2024-02-26T02:34:15;6.80;99.90
10692;DHT22;5396;50.950;6.988;2024-02-26T02:36:48;6.80;99.90
10692;DHT22;5396;50.950;6.988;2024-02-26T02:39:13;6.80;99.90
10692;DHT22;5396;50.950;6.988;2024-02-26T02:41:39;6.80;99.90
10692;DHT22;5396;50.950;6.988;2024-02-26T02:44:04;6.80;99.90
10692;DHT22;5396;50.950;6.988;2024-02-26T02:46:30;6.80;99.90
10692;DHT22;5396;50.950;6.988;2024-02-26T02:48:56;6.80;99.90
10692;DHT22;5396;50.950;6.988;2024-02-26T02:51:21;6.80;99.90
10692;DHT22;5396;50.950;6.988;2024-02-26T02:53:49;6.80;99.90
10692;DHT22;5396;50.950;6.988;2024-02-26T02:56:15;6.80;99.90
10692;DHT22;5396;50.950;6.988;2024-02-26T02:58:40;6.80;99.90
10692;DHT22;5396;50.950;6.988;2024-02-26T03:01:06;6.80;99.90
10692;DHT22;5396;50.950;6.988;2024-02-26T03:03:31;6.70;99.90
10692;DHT22;5396;50.950;6.988;2024-02-26T03:05:57;6.70;99.90
10692;DHT22;5396;50.950;6.988;2024-02-26T03:08:23;6.70;99.90
10692;DHT22;5396;50.950;6.988;2024-02-26T03:10:49;6.70;99.90
10692;DHT22;5396;50.950;6.988;2024-02-26T03:13:14;6.70;99.90
10692;DHT22;5396;50.950;6.988;2024-02-26T03:15:40;6.70;99.90
10692;DHT22;5396;50.950;6.988;2024-02-26T03:18:06;6.80;99.90
10692;DHT22;5396;50.950;6.988;2024-02-26T03:20:31;6.70;99.90
10692;DHT22;5396;50.950;6.988;2024-02-26T03:22:56;6.70;99.90
10692;DHT22;5396;50.950;6.988;2024-02-26T03:25:22;6.70;99.90
10692;DHT22;5396;50.950;6.988;2024-02-26T03:27:47;6.70;99.90
10692;DHT22;5396;50.950;6.988;2024-02-26T03:30:13;6.60;99.90
10692;DHT22;5396;50.950;6.988;2024-02-26T03:32:39;6.60;99.90
10692;DHT22;5396;50.950;6.988;2024-02-26T03:35:04;6.60;99.90
10692;DHT22;5396;50.950;6.988;2024-02-26T03:37:30;6.60;99.90
10692;DHT22;5396;50.950;6.988;2024-02-26T03:39:55;6.50;99.90
10692;DHT22;5396;50.950;6.988;2024-02-26T03:42:22;6.60;99.90
10692;DHT22;5396;50.950;6.988;2024-02-26T03:44:48;6.50;99.90
10692;DHT22;5396;50.950;6.988;2024-02-26T03:47:13;6.50;99.90
10692;DHT22;5396;50.950;6.988;2024-02-26T03:49:39;6.40;99.90
10692;DHT22;5396;50.950;6.988;2024-02-26T03:52:04;6.40;99.90
10692;DHT22;5396;50.950;6.988;2024-02-26T03:54:30;6.40;99.90
10692;DHT22;5396;50.950;6.988;2024-02-26T03:56:56;6.40;99.90
10692;DHT22;5396;50.950;6.988;2024-02-26T03:59:21;6.40;99.90
10692;DHT22;5396;50.950;6.988;2024-02-26T04:01:49;6.40;99.90
10692;DHT22;5396;50.950;6.988;2024-02-26T04:04:15;6.40;99.90
10692;DHT22;5396;50.950;6.988;2024-02-26T04:06:44;6.40;99.90
10692;DHT22;5396;50.950;6.988;2024-02-26T04:09:09;6.40;99.90
10692;DHT22;5396;50.950;6.988;2024-02-26T04:11:35;6.40;99.90
10692;DHT22;5396;50.950;6.988;2024-02-26T04:14:01;6.40;99.90
10692;DHT22;5396;50.950;6.988;2024-02-26T04:16:26;6.40;99.90
10692;DHT22;5396;50.950;6.988;2024-02-26T04:18:52;6.30;99.90
10692;DHT22;5396;50.950;6.988;2024-02-26T04:21:18;6.30;99.90
10692;DHT22;5396;50.950;6.988;2024-02-26T04:23:44;6.30;99.90
10692;DHT22;5396;50.950;6.988;2024-02-26T04:26:09;6.30;99.90
10692;DHT22;5396;50.950;6.988;2024-02-26T04:28:35;6.30;99.90
10692;DHT22;5396;50.950;6.988;2024-02-26T04:31:01;6.30;99.90
10692;DHT22;5396;50.950;6.988;2024-02-26T04:33:27;6.30;99.90
10692;DHT22;5396;50.950;6.988;2024-02-26T04:35:52;6.30;99.90
10692;DHT22;5396;50.950;6.988;2024-02-26T04:38:18;6.30;99.90
10692;DHT22;5396;50.950;6.988;2024-02-26T04:40:44;6.30;99.90
10692;DHT22;5396;50.950;6.988;2024-02-26T04:43:10;6.30;99.90
10692;DHT22;5396;50.950;6.988;2024-02-26T04:45:35;6.20;99.90
10692;DHT22;5396;50.950;6.988;2024-02-26T04:48:01;6.20;99.90
10692;DHT22;5396;50.950;6.988;2024-02-26T04:50:26;6.20;99.90
10692;DHT22;5396;50.950;6.988;2024-02-26T04:52:52;6.20;99.90
10692;DHT22;5396;50.950;6.988;2024-02-26T04:55:17;6.20;99.90
10692;DHT22;5396;50.950;6.988;2024-02-26T04:57:43;6.20;99.90
10692;DHT22;5396;50.950;6.988;2024-02-26T05:00:08;6.20;99.90
10692;DHT22;5396;50.950;6.988;2024-02-26T05:02:35;6.20;99.90
10692;DHT22;5396;50.950;6.988;2024-02-26T05:05:04;6.10;99.90
10692;DHT22;5396;50.950;6.988;2024-02-26T05:07:29;6.10;99.90
10692;DHT22;5396;50.950;6.988;2024-02-26T05:09:55;6.10;99.90
10692;DHT22;5396;50.950;6.988;2024-02-26T05:12:21;6.10;99.90
10692;DHT22;5396;50.950;6.988;2024-02-26T05:14:46;6.10;99.90
10692;DHT22;5396;50.950;6.988;2024-02-26T05:17:12;6.10;99.90
10692;DHT22;5396;50.950;6.988;2024-02-26T05:19:37;6.10;99.90
10692;DHT22;5396;50.950;6.988;2024-02-26T05:22:03;6.10;99.90
10692;DHT22;5396;50.950;6.988;2024-02-26T05:24:28;6.10;99.90
10692;DHT22;5396;50.950;6.988;2024-02-26T05:26:54;6.10;99.90
10692;DHT22;5396;50.950;6.988;2024-02-26T05:29:20;6.10;99.90
10692;DHT22;5396;50.950;6.988;2024-02-26T05:31:46;6.10;99.90
10692;DHT22;5396;50.950;6.988;2024-02-26T05:34:11;6.10;99.90
10692;DHT22;5396;50.950;6.988;2024-02-26T05:36:37;6.10;99.90
10692;DHT22;5396;50.950;6.988;2024-02-26T05:39:02;6.00;99.90
10692;DHT22;5396;50.950;6.988;2024-02-26T05:41:29;6.00;99.90
10692;DHT22;5396;50.950;6.988;2024-02-26T05:43:54;6.00;99.90
10692;DHT22;5396;50.950;6.988;2024-02-26T05:46:20;6.00;99.90
10692;DHT22;5396;50.950;6.988;2024-02-26T05:48:46;6.00;99.90
10692;DHT22;5396;50.950;6.988;2024-02-26T05:51:12;6.00;99.90
10692;DHT22;5396;50.950;6.988;2024-02-26T05:53:38;6.00;99.90
10692;DHT22;5396;50.950;6.988;2024-02-26T05:56:03;6.00;99.90
10692;DHT22;5396;50.950;6.988;2024-02-26T05:58:29;6.00;99.90
10692;DHT22;5396;50.950;6.988;2024-02-26T06:00:54;6.00;99.90
10692;DHT22;5396;50.950;6.988;2024-02-26T06:03:20;6.00;99.90
10692;DHT22;5396;50.950;6.988;2024-02-26T06:05:46;6.00;99.90
10692;DHT22;5396;50.950;6.988;2024-02-26T06:08:11;6.00;99.90
10692;DHT22;5396;50.950;6.988;2024-02-26T06:10:37;6.00;99.90
10692;DHT22;5396;50.950;6.988;2024-02-26T06:13:04;6.00;99.90
10692;DHT22;5396;50.950;6.988;2024-02-26T06:15:30;6.00;99.90
10692;DHT22;5396;50.950;6.988;2024-02-26T06:17:58;6.00;99.90
10692;DHT22;5396;50.950;6.988;2024-02-26T06:20:24;6.00;99.90
10692;DHT22;5396;50.950;6.988;2024-02-26T06:22:50;5.90;99.90
10692;DHT22;5396;50.950;6.988;2024-02-26T06:25:16;6.00;99.90
10692;DHT22;5396;50.950;6.988;2024-02-26T06:27:41;5.90;99.90
10692;DHT22;5396;50.950;6.988;2024-02-26T06:30:07;5.90;99.90
10692;DHT22;5396;50.950;6.988;2024-02-26T06:32:33;5.90;99.90
10692;DHT22;5396;50.950;6.988;2024-02-26T06:34:59;5.90;99.90
10692;DHT22;5396;50.950;6.988;2024-02-26T06:37:24;5.90;99.90
10692;DHT22;5396;50.950;6.988;2024-02-26T06:39:50;5.90;99.90
10692;DHT22;5396;50.950;6.988;2024-02-26T06:42:17;5.90;99.90
10692;DHT22;5396;50.950;6.988;2024-02-26T06:44:43;5.90;99.90
10692;DHT22;5396;50.950;6.988;2024-02-26T06:47:08;6.00;99.90
10692;DHT22;5396;50.950;6.988;2024-02-26T06:49:37;6.00;99.90
10692;DHT22;5396;50.950;6.988;2024-02-26T06:52:02;6.00;99.90
10692;DHT22;5396;50.950;6.988;2024-02-26T06:54:28;6.00;99.90
10692;DHT22;5396;50.950;6.988;2024-02-26T06:56:53;6.00;99.90
10692;DHT22;5396;50.950;6.988;2024-02-26T06:59:19;6.00;99.90
10692;DHT22;5396;50.950;6.988;2024-02-26T07:01:45;6.00;99.90
10692;DHT22;5396;50.950;6.988;2024-02-26T07:04:10;6.00;99.90
10692;DHT22;5396;50.950;6.988;2024-02-26T07:06:36;6.00;99.90
10692;DHT22;5396;50.950;6.988;2024-02-26T07:09:02;6.00;99.90
10692;DHT22;5396;50.950;6.988;2024-02-26T07:11:27;6.00;99.90
10692;DHT22;5396;50.950;6.988;2024-02-26T07:13:53;6.00;99.90
10692;DHT22;5396;50.950;6.988;2024-02-26T07:16:18;6.00;99.90
10692;DHT22;5396;50.950;6.988;2024-02-26T07:18:44;6.00;99.90
10692;DHT22;5396;50.950;6.988;2024-02-26T07:21:09;6.00;99.90
10692;DHT22;5396;50.950;6.988;2024-02-26T07:23:36;6.00;99.90
10692;DHT22;5396;50.950;6.988;2024-02-26T07:26:02;6.00;99.90
10692;DHT22;5396;50.950;6.988;2024-02-26T07:28:27;6.00;99.90
10692;DHT22;5396;50.950;6.988;2024-02-26T07:30:53;6.00;99.90
10692;DHT22;5396;50.950;6.988;2024-02-26T07:33:18;6.00;99.90
10692;DHT22;5396;50.950;6.988;2024-02-26T07:35:44;6.00;99.90
10692;DHT22;5396;50.950;6.988;2024-02-26T07:38:09;6.10;99.90
10692;DHT22;5396;50.950;6.988;2024-02-26T07:40:35;6.10;99.90
10692;DHT22;5396;50.950;6.988;2024-02-26T07:43:01;6.10;99.90
10692;DHT22;5396;50.950;6.988;2024-02-26T07:45:27;6.10;99.90
10692;DHT22;5396;50.950;6.988;2024-02-26T07:47:52;6.10;99.90
10692;DHT22;5396;50.950;6.988;2024-02-26T07:50:18;6.10;99.90
10692;DHT22;5396;50.950;6.988;2024-02-26T07:52:43;6.00;99.90
10692;DHT22;5396;50.950;6.988;2024-02-26T07:55:10;6.00;99.90
10692;DHT22;5396;50.950;6.988;2024-02-26T07:57:35;6.00;99.90
10692;DHT22;5396;50.950;6.988;2024-02-26T08:00:02;6.00;99.90
10692;DHT22;5396;50.950;6.988;2024-02-26T08:02:27;6.00;99.90
10692;DHT22;5396;50.950;6.988;2024-02-26T08:04:53;6.10;99.90
10692;DHT22;5396;50.950;6.988;2024-02-26T08:07:18;6.10;99.90
10692;DHT22;5396;50.950;6.988;2024-02-26T08:09:45;6.10;99.90
10692;DHT22;5396;50.950;6.988;2024-02-26T08:12:11;6.10;99.90
10692;DHT22;5396;50.950;6.988;2024-02-26T08:14:37;6.10;99.90
10692;DHT22;5396;50.950;6.988;2024-02-26T08:17:02;6.10;99.90
10692;DHT22;5396;50.950;6.988;2024-02-26T08:19:28;6.10;99.90
10692;DHT22;5396;50.950;6.988;2024-02-26T08:21:53;6.10;99.90
10692;DHT22;5396;50.950;6.988;2024-02-26T08:24:18;6.10;99.90
10692;DHT22;5396;50.950;6.988;2024-02-26T08:26:44;6.10;99.90
10692;DHT22;5396;50.950;6.988;2024-02-26T08:29:10;6.10;99.90
10692;DHT22;5396;50.950;6.988;2024-02-26T08:31:35;6.10;99.90
10692;DHT22;5396;50.950;6.988;2024-02-26T08:34:05;6.10;99.90
10692;DHT22;5396;50.950;6.988;2024-02-26T08:36:33;6.10;99.90
10692;DHT22;5396;50.950;6.988;2024-02-26T08:38:58;6.10;99.90
10692;DHT22;5396;50.950;6.988;2024-02-26T08:41:24;6.10;99.90
10692;DHT22;5396;50.950;6.988;2024-02-26T08:43:49;6.10;99.90
10692;DHT22;5396;50.950;6.988;2024-02-26T08:46:15;6.10;99.90
10692;DHT22;5396;50.950;6.988;2024-02-26T08:48:40;6.10;99.90
10692;DHT22;5396;50.950;6.988;2024-02-26T08:51:06;6.10;99.90
10692;DHT22;5396;50.950;6.988;2024-02-26T08:53:32;6.10;99.90
10692;DHT22;5396;50.950;6.988;2024-02-26T08:55:58;6.10;99.90
10692;DHT22;5396;50.950;6.988;2024-02-26T08:58:23;6.10;99.90
10692;DHT22;5396;50.950;6.988;2024-02-26T09:00:49;6.10;99.90
10692;DHT22;5396;50.950;6.988;2024-02-26T09:03:14;6.10;99.90
10692;DHT22;5396;50.950;6.988;2024-02-26T09:05:43;6.10;99.90
10692;DHT22;5396;50.950;6.988;2024-02-26T09:08:10;6.10;99.90
10692;DHT22;5396;50.950;6.988;2024-02-26T09:10:35;6.20;99.90
10692;DHT22;5396;50.950;6.988;2024-02-26T09:13:01;6.20;99.90
10692;DHT22;5396;50.950;6.988;2024-02-26T09:15:26;6.20;99.90
10692;DHT22;5396;50.950;6.988;2024-02-26T09:17:52;6.20;99.90
10692;DHT22;5396;50.950;6.988;2024-02-26T09:20:17;6.20;99.90
10692;DHT22;5396;50.950;6.988;2024-02-26T09:22:47;6.30;99.90
10692;DHT22;5396;50.950;6.988;2024-02-26T09:25:12;6.30;99.90
10692;DHT22;5396;50.950;6.988;2024-02-26T09:27:38;6.30;99.90
10692;DHT22;5396;50.950;6.988;2024-02-26T09:30:04;6.30;99.90
10692;DHT22;5396;50.950;6.988;2024-02-26T09:32:29;6.30;99.90
10692;DHT22;5396;50.950;6.988;2024-02-26T09:34:55;6.20;99.90
10692;DHT22;5396;50.950;6.988;2024-02-26T09:37:21;6.20;99.90
10692;DHT22;5396;50.950;6.988;2024-02-26T09:39:46;6.20;99.90
10692;DHT22;5396;50.950;6.988;2024-02-26T09:42:12;6.20;99.90
10692;DHT22;5396;50.950;6.988;2024-02-26T09:44:39;6.20;99.90
10692;DHT22;5396;50.950;6.988;2024-02-26T09:47:06;6.20;99.90
10692;DHT22;5396;50.950;6.988;2024-02-26T09:49:33;6.20;99.90
10692;DHT22;5396;50.950;6.988;2024-02-26T09:51:59;6.20;99.90
10692;DHT22;5396;50.950;6.988;2024-02-26T09:54:27;6.20;99.90
10692;DHT22;5396;50.950;6.988;2024-02-26T09:56:53;6.20;99.90
10692;DHT22;5396;50.950;6.988;2024-02-26T09:59:20;6.20;99.90
10692;DHT22;5396;50.950;6.988;2024-02-26T10:01:46;6.20;99.90
10692;DHT22;5396;50.950;6.988;2024-02-26T10:04:12;6.20;99.90
10692;DHT22;5396;50.950;6.988;2024-02-26T10:06:38;6.20;99.90
10692;DHT22;5396;50.950;6.988;2024-02-26T10:09:04;6.20;99.90
10692;DHT22;5396;50.950;6.988;2024-02-26T10:11:32;6.30;99.90
10692;DHT22;5396;50.950;6.988;2024-02-26T10:13:58;6.30;99.90
10692;DHT22;5396;50.950;6.988;2024-02-26T10:16:24;6.20;99.90
10692;DHT22;5396;50.950;6.988;2024-02-26T10:18:50;6.20;99.90
10692;DHT22;5396;50.950;6.988;2024-02-26T10:21:16;6.20;99.90
10692;DHT22;5396;50.950;6.988;2024-02-26T10:23:43;6.20;99.90
10692;DHT22;5396;50.950;6.988;2024-02-26T10:26:09;6.20;99.90
10692;DHT22;5396;50.950;6.988;2024-02-26T10:28:35;6.20;99.90
10692;DHT22;5396;50.950;6.988;2024-02-26T10:31:01;6.30;99.90
10692;DHT22;5396;50.950;6.988;2024-02-26T10:33:27;6.30;99.90
10692;DHT22;5396;50.950;6.988;2024-02-26T10:35:53;6.30;99.90
10692;DHT22;5396;50.950;6.988;2024-02-26T10:38:19;6.30;99.90
10692;DHT22;5396;50.950;6.988;2024-02-26T10:40:46;6.40;99.90
10692;DHT22;5396;50.950;6.988;2024-02-26T10:43:11;6.50;99.90
10692;DHT22;5396;50.950;6.988;2024-02-26T10:45:40;6.60;99.90
10692;DHT22;5396;50.950;6.988;2024-02-26T10:48:13;6.70;99.90
10692;DHT22;5396;50.950;6.988;2024-02-26T10:50:39;6.80;99.90
10692;DHT22;5396;50.950;6.988;2024-02-26T10:53:28;6.80;99.90
10692;DHT22;5396;50.950;6.988;2024-02-26T10:55:54;6.80;99.90
10692;DHT22;5396;50.950;6.988;2024-02-26T10:58:21;6.80;99.90
10692;DHT22;5396;50.950;6.988;2024-02-26T11:00:47;6.90;99.90
10692;DHT22;5396;50.950;6.988;2024-02-26T11:03:14;6.80;99.90
10692;DHT22;5396;50.950;6.988;2024-02-26T11:05:43;6.80;99.90
10692;DHT22;5396;50.950;6.988;2024-02-26T11:08:10;6.80;99.90
10692;DHT22;5396;50.950;6.988;2024-02-26T11:10:36;6.80;99.90
10692;DHT22;5396;50.950;6.988;2024-02-26T11:13:02;6.80;99.90
10692;DHT22;5396;50.950;6.988;2024-02-26T11:15:28;6.90;99.90
10692;DHT22;5396;50.950;6.988;2024-02-26T11:17:54;6.90;99.90
10692;DHT22;5396;50.950;6.988;2024-02-26T11:20:20;7.00;99.90
10692;DHT22;5396;50.950;6.988;2024-02-26T11:22:46;7.00;99.90
10692;DHT22;5396;50.950;6.988;2024-02-26T11:25:12;7.10;99.90
10692;DHT22;5396;50.950;6.988;2024-02-26T11:27:39;7.20;99.90
10692;DHT22;5396;50.950;6.988;2024-02-26T11:30:08;7.20;99.90
10692;DHT22;5396;50.950;6.988;2024-02-26T11:32:35;7.20;99.90
10692;DHT22;5396;50.950;6.988;2024-02-26T11:35:00;7.30;99.90
10692;DHT22;5396;50.950;6.988;2024-02-26T11:37:26;7.40;99.90
10692;DHT22;5396;50.950;6.988;2024-02-26T11:39:52;7.40;99.90
10692;DHT22;5396;50.950;6.988;2024-02-26T11:42:18;7.40;99.90
10692;DHT22;5396;50.950;6.988;2024-02-26T11:44:47;7.40;99.90
10692;DHT22;5396;50.950;6.988;2024-02-26T11:47:22;7.40;99.90
10692;DHT22;5396;50.950;6.988;2024-02-26T11:49:48;7.30;99.90
10692;DHT22;5396;50.950;6.988;2024-02-26T11:52:14;7.30;99.90
10692;DHT22;5396;50.950;6.988;2024-02-26T11:54:44;7.30;99.90
10692;DHT22;5396;50.950;6.988;2024-02-26T12:00:12;7.30;99.90
10692;DHT22;5396;50.950;6.988;2024-02-26T12:05:06;7.30;99.90
10692;DHT22;5396;50.950;6.988;2024-02-26T12:07:32;7.40;99.90
10692;DHT22;5396;50.950;6.988;2024-02-26T12:12:43;7.50;99.90
10692;DHT22;5396;50.950;6.988;2024-02-26T12:15:10;7.50;99.90
10692;DHT22;5396;50.950;6.988;2024-02-26T12:17:36;7.50;99.90
10692;DHT22;5396;50.950;6.988;2024-02-26T12:20:11;7.50;99.90
10692;DHT22;5396;50.950;6.988;2024-02-26T12:22:39;7.60;99.90
10692;DHT22;5396;50.950;6.988;2024-02-26T12:25:06;7.70;99.90
10692;DHT22;5396;50.950;6.988;2024-02-26T12:27:31;7.70;99.90
10692;DHT22;5396;50.950;6.988;2024-02-26T12:29:57;7.70;99.90
10692;DHT22;5396;50.950;6.988;2024-02-26T12:32:22;7.60;99.90
10692;DHT22;5396;50.950;6.988;2024-02-26T12:34:48;7.60;99.90
10692;DHT22;5396;50.950;6.988;2024-02-26T12:37:15;7.60;99.90
10692;DHT22;5396;50.950;6.988;2024-02-26T12:39:40;7.60;99.90
10692;DHT22;5396;50.950;6.988;2024-02-26T12:42:07;7.60;99.90
10692;DHT22;5396;50.950;6.988;2024-02-26T12:44:32;7.60;99.90
10692;DHT22;5396;50.950;6.988;2024-02-26T12:47:01;7.50;99.90
10692;DHT22;5396;50.950;6.988;2024-02-26T12:49:28;7.50;99.90
10692;DHT22;5396;50.950;6.988;2024-02-26T12:51:53;7.50;99.90
10692;DHT22;5396;50.950;6.988;2024-02-26T12:54:19;7.50;99.90
10692;DHT22;5396;50.950;6.988;2024-02-26T12:56:44;7.50;99.90
10692;DHT22;5396;50.950;6.988;2024-02-26T12:59:10;7.50;99.90
10692;DHT22;5396;50.950;6.988;2024-02-26T13:01:36;7.50;99.90
10692;DHT22;5396;50.950;6.988;2024-02-26T13:04:01;7.60;99.90
10692;DHT22;5396;50.950;6.988;2024-02-26T13:06:32;7.70;99.90
10692;DHT22;5396;50.950;6.988;2024-02-26T13:08:57;7.70;99.90
10692;DHT22;5396;50.950;6.988;2024-02-26T13:11:27;7.70;99.90
10692;DHT22;5396;50.950;6.988;2024-02-26T13:13:54;7.70;99.90
10692;DHT22;5396;50.950;6.988;2024-02-26T13:16:20;7.70;99.90
10692;DHT22;5396;50.950;6.988;2024-02-26T13:18:48;7.70;99.90
10692;DHT22;5396;50.950;6.988;2024-02-26T13:21:14;7.80;99.90
10692;DHT22;5396;50.950;6.988;2024-02-26T13:23:40;7.80;99.90
10692;DHT22;5396;50.950;6.988;2024-02-26T13:26:06;7.80;99.90
10692;DHT22;5396;50.950;6.988;2024-02-26T13:28:33;7.80;99.90
10692;DHT22;5396;50.950;6.988;2024-02-26T13:30:59;7.80;99.90
10692;DHT22;5396;50.950;6.988;2024-02-26T13:33:28;7.90;99.90
10692;DHT22;5396;50.950;6.988;2024-02-26T13:35:55;7.80;99.90
10692;DHT22;5396;50.950;6.988;2024-02-26T13:38:20;7.80;99.90
10692;DHT22;5396;50.950;6.988;2024-02-26T13:40:46;7.90;99.90
10692;DHT22;5396;50.950;6.988;2024-02-26T13:43:12;7.90;99.90
10692;DHT22;5396;50.950;6.988;2024-02-26T13:45:37;8.00;99.90
10692;DHT22;5396;50.950;6.988;2024-02-26T13:48:04;8.10;99.90
10692;DHT22;5396;50.950;6.988;2024-02-26T13:50:30;8.10;99.90
10692;DHT22;5396;50.950;6.988;2024-02-26T13:52:55;8.20;99.90
10692;DHT22;5396;50.950;6.988;2024-02-26T13:55:22;8.20;99.90
10692;DHT22;5396;50.950;6.988;2024-02-26T13:57:49;8.10;99.90
10692;DHT22;5396;50.950;6.988;2024-02-26T14:00:17;8.00;99.90
10692;DHT22;5396;50.950;6.988;2024-02-26T14:02:42;8.00;99.90
10692;DHT22;5396;50.950;6.988;2024-02-26T14:05:08;8.00;99.90
10692;DHT22;5396;50.950;6.988;2024-02-26T14:07:33;8.00;99.90
10692;DHT22;5396;50.950;6.988;2024-02-26T14:09:59;8.00;99.90
10692;DHT22;5396;50.950;6.988;2024-02-26T14:12:24;8.00;99.90
10692;DHT22;5396;50.950;6.988;2024-02-26T14:14:50;8.00;99.90
10692;DHT22;5396;50.950;6.988;2024-02-26T14:17:18;8.00;99.90
10692;DHT22;5396;50.950;6.988;2024-02-26T14:19:44;8.00;99.90
10692;DHT22;5396;50.950;6.988;2024-02-26T14:22:13;8.00;99.90
10692;DHT22;5396;50.950;6.988;2024-02-26T14:24:39;8.10;99.90
10692;DHT22;5396;50.950;6.988;2024-02-26T14:27:05;8.10;99.90
10692;DHT22;5396;50.950;6.988;2024-02-26T14:29:31;8.20;99.90
10692;DHT22;5396;50.950;6.988;2024-02-26T14:31:57;8.30;99.90
10692;DHT22;5396;50.950;6.988;2024-02-26T14:34:22;8.30;99.90
10692;DHT22;5396;50.950;6.988;2024-02-26T14:36:48;8.40;99.90
10692;DHT22;5396;50.950;6.988;2024-02-26T14:39:13;8.30;99.90
10692;DHT22;5396;50.950;6.988;2024-02-26T14:41:39;8.40;99.90
10692;DHT22;5396;50.950;6.988;2024-02-26T14:44:05;8.40;99.90
10692;DHT22;5396;50.950;6.988;2024-02-26T14:46:30;8.40;99.90
10692;DHT22;5396;50.950;6.988;2024-02-26T14:48:56;8.40;99.90
10692;DHT22;5396;50.950;6.988;2024-02-26T14:51:22;8.40;99.90
10692;DHT22;5396;50.950;6.988;2024-02-26T14:53:47;8.40;99.90
10692;DHT22;5396;50.950;6.988;2024-02-26T14:56:13;8.50;99.90
10692;DHT22;5396;50.950;6.988;2024-02-26T14:58:38;8.50;99.90
10692;DHT22;5396;50.950;6.988;2024-02-26T15:01:04;8.50;99.90
10692;DHT22;5396;50.950;6.988;2024-02-26T15:03:29;8.50;99.90
10692;DHT22;5396;50.950;6.988;2024-02-26T15:05:55;8.50;99.90
10692;DHT22;5396;50.950;6.988;2024-02-26T15:08:20;8.50;99.90
10692;DHT22;5396;50.950;6.988;2024-02-26T15:10:46;8.50;99.90
10692;DHT22;5396;50.950;6.988;2024-02-26T15:13:15;8.50;99.90
10692;DHT22;5396;50.950;6.988;2024-02-26T15:15:44;8.50;99.90
10692;DHT22;5396;50.950;6.988;2024-02-26T15:18:09;8.50;99.90
10692;DHT22;5396;50.950;6.988;2024-02-26T15:20:37;8.50;99.90
10692;DHT22;5396;50.950;6.988;2024-02-26T15:23:03;8.50;99.90
10692;DHT22;5396;50.950;6.988;2024-02-26T15:25:29;8.50;99.90
10692;DHT22;5396;50.950;6.988;2024-02-26T15:27:55;8.50;99.90
10692;DHT22;5396;50.950;6.988;2024-02-26T15:30:20;8.50;99.90
10692;DHT22;5396;50.950;6.988;2024-02-26T15:32:45;8.50;99.90
10692;DHT22;5396;50.950;6.988;2024-02-26T15:35:11;8.50;99.90
10692;DHT22;5396;50.950;6.988;2024-02-26T15:37:36;8.50;99.90
10692;DHT22;5396;50.950;6.988;2024-02-26T15:40:02;8.50;99.90
10692;DHT22;5396;50.950;6.988;2024-02-26T15:42:28;8.40;99.90
10692;DHT22;5396;50.950;6.988;2024-02-26T15:44:54;8.40;99.90
10692;DHT22;5396;50.950;6.988;2024-02-26T15:47:20;8.30;99.90
10692;DHT22;5396;50.950;6.988;2024-02-26T15:49:45;8.30;99.90
10692;DHT22;5396;50.950;6.988;2024-02-26T15:52:11;8.30;99.90
10692;DHT22;5396;50.950;6.988;2024-02-26T15:54:40;8.30;99.90
10692;DHT22;5396;50.950;6.988;2024-02-26T15:57:06;8.30;99.90
10692;DHT22;5396;50.950;6.988;2024-02-26T15:59:34;8.30;99.90
10692;DHT22;5396;50.950;6.988;2024-02-26T16:02:00;8.30;99.90